createdAt,value
2023-01-22T05:00:56.627Z,1.08
2023-01-22T05:04:59.500Z,1.11
2023-01-22T05:09:02.217Z,1.10
2023-01-22T05:13:09.986Z,1.11
2023-01-22T05:17:15.568Z,1.19
2023-01-22T05:21:18.178Z,1.16
2023-01-22T05:25:21.984Z,1.17
2023-01-22T05:29:26.034Z,1.24
2023-01-22T05:33:41.042Z,1.29
2023-01-22T05:37:45.789Z,1.25
2023-01-22T05:41:48.809Z,1.26
2023-01-22T05:45:51.522Z,1.29
2023-01-22T05:50:16.531Z,1.32
2023-01-22T05:54:21.566Z,1.20
2023-01-22T05:58:25.369Z,1.29
2023-01-22T06:02:28.851Z,1.25
2023-01-22T06:06:33.284Z,1.27
2023-01-22T06:10:36.703Z,1.34
2023-01-22T06:14:39.692Z,1.31
2023-01-22T06:18:42.916Z,1.40
2023-01-22T06:22:51.739Z,1.42
2023-01-22T06:26:54.260Z,1.48
2023-01-22T06:31:07.543Z,1.47
2023-01-22T06:35:11.846Z,1.39
2023-01-22T06:39:16.000Z,1.43
2023-01-22T06:43:33.526Z,1.41
2023-01-22T06:47:36.086Z,1.41
2023-01-22T06:51:38.955Z,1.40
2023-01-22T06:55:43.472Z,1.46
2023-01-22T06:59:46.006Z,1.36
2023-01-22T07:03:48.522Z,1.44
2023-01-22T07:07:54.293Z,1.40
2023-01-22T07:12:00.915Z,1.47
2023-01-22T07:16:04.039Z,1.42
2023-01-22T07:20:07.064Z,1.50
2023-01-22T07:24:10.839Z,1.55
2023-01-22T07:28:16.144Z,1.42
2023-01-22T07:32:18.631Z,1.39
2023-01-22T07:36:21.407Z,1.47
2023-01-22T07:40:24.880Z,1.46
2023-01-22T07:44:28.587Z,1.48
2023-01-22T07:48:31.350Z,1.44
2023-01-22T07:52:33.843Z,1.36
2023-01-22T07:56:36.347Z,1.41
2023-01-22T08:00:40.224Z,1.39
2023-01-22T08:04:43.327Z,1.45
2023-01-22T08:08:45.833Z,1.39
2023-01-22T08:12:48.351Z,1.44
2023-01-22T08:16:52.154Z,1.55
2023-01-22T08:20:54.674Z,1.46
2023-01-22T08:24:57.173Z,1.44
2023-01-22T08:29:00.205Z,1.55
2023-01-22T08:33:04.731Z,1.53
2023-01-22T08:37:07.325Z,1.53
2023-01-22T08:41:09.812Z,1.63
2023-01-22T08:45:12.597Z,1.70
2023-01-22T08:49:16.926Z,1.76
2023-01-22T08:53:19.444Z,1.90
2023-01-22T08:57:21.930Z,1.86
2023-01-22T09:01:24.477Z,2.11
2023-01-22T09:05:28.981Z,2.19
2023-01-22T09:09:31.584Z,2.07
2023-01-22T09:13:34.246Z,2.04
2023-01-22T09:17:36.735Z,2.03
2023-01-22T09:21:40.579Z,2.16
2023-01-22T09:25:43.355Z,2.44
2023-01-22T09:29:45.924Z,2.56
2023-01-22T09:33:48.444Z,2.79
2023-01-22T09:37:52.266Z,2.74
2023-01-22T09:41:57.924Z,2.68
2023-01-22T09:46:03.693Z,2.57
2023-01-22T09:50:13.736Z,2.68
2023-01-22T09:54:17.647Z,2.57
2023-01-22T09:58:22.849Z,2.67
2023-01-22T10:02:30.666Z,2.77
2023-01-22T10:06:34.672Z,2.69
2023-01-22T10:10:38.482Z,2.94
2023-01-22T10:14:43.515Z,2.94
2023-01-22T10:18:49.585Z,2.90
2023-01-22T10:22:56.060Z,3.10
2023-01-22T10:27:12.509Z,3.09
2023-01-22T10:31:24.467Z,3.29
2023-01-22T10:35:27.930Z,3.34
2023-01-22T10:39:40.477Z,3.65
2023-01-22T10:43:44.413Z,3.70
2023-01-22T10:47:46.863Z,3.86
2023-01-22T10:51:55.671Z,3.71
2023-01-22T10:56:00.868Z,3.62
2023-01-22T11:00:22.011Z,3.74
2023-01-22T11:04:27.666Z,3.44
2023-01-22T11:08:44.449Z,3.29
2023-01-22T11:12:51.823Z,3.24
2023-01-22T11:17:02.207Z,3.19
2023-01-22T11:21:15.125Z,3.07
2023-01-22T11:25:17.777Z,2.87
2023-01-22T11:29:35.612Z,2.87
2023-01-22T11:33:53.250Z,3.00
2023-01-22T11:38:06.768Z,3.21
2023-01-22T11:42:27.733Z,3.38
2023-01-22T11:46:49.550Z,3.22
2023-01-22T11:51:03.983Z,3.16
2023-01-22T11:55:25.884Z,3.26
2023-01-22T11:59:40.202Z,3.40
2023-01-22T12:04:04.175Z,3.41
2023-01-22T12:08:20.943Z,3.65
2023-01-22T12:12:39.193Z,3.28
2023-01-22T12:16:49.484Z,3.38
2023-01-22T12:21:07.783Z,3.38
2023-01-22T12:25:19.739Z,3.34
2023-01-22T12:29:28.296Z,3.17
2023-01-22T12:33:34.351Z,2.92
2023-01-22T12:37:44.476Z,2.90
2023-01-22T12:41:54.039Z,3.13
2023-01-22T12:46:04.997Z,3.15
2023-01-22T12:50:18.263Z,3.16
2023-01-22T12:54:22.836Z,3.10
2023-01-22T12:58:28.737Z,3.01
2023-01-22T13:02:39.091Z,3.13
2023-01-22T13:06:43.748Z,3.03
2023-01-22T13:10:54.262Z,2.98
2023-01-22T13:14:58.779Z,3.02
2023-01-22T13:19:08.778Z,2.99
2023-01-22T13:23:14.615Z,2.77
2023-01-22T13:27:24.087Z,2.86
2023-01-22T13:31:28.558Z,2.65
2023-01-22T13:35:31.144Z,2.72
2023-01-22T13:39:35.054Z,2.61
2023-01-22T13:43:39.203Z,2.61
2023-01-22T13:47:43.131Z,2.65
2023-01-22T13:51:46.480Z,2.69
2023-01-22T13:55:49.053Z,2.71
2023-01-22T13:59:55.926Z,2.56
2023-01-22T14:04:01.412Z,2.75
2023-01-22T14:08:06.824Z,2.79
2023-01-22T14:12:17.800Z,2.92
2023-01-22T14:16:20.633Z,3.12
2023-01-22T14:20:24.465Z,2.93
2023-01-22T14:24:26.987Z,2.96
2023-01-22T14:28:31.288Z,2.87
2023-01-22T14:32:33.807Z,2.97
2023-01-22T14:36:37.726Z,2.93
2023-01-22T14:40:41.817Z,2.67
2023-01-22T14:44:44.324Z,2.64
2023-01-22T14:48:46.831Z,2.66
2023-01-22T14:52:51.898Z,2.65
2023-01-22T14:56:55.973Z,2.47
2023-01-22T15:00:58.650Z,2.46
2023-01-22T15:05:01.231Z,2.40
2023-01-22T15:09:05.071Z,2.46
2023-01-22T15:13:07.574Z,2.53
2023-01-22T15:17:10.072Z,2.58
2023-01-22T15:21:12.594Z,2.63
2023-01-22T15:25:16.756Z,2.56
2023-01-22T15:29:19.292Z,2.56
2023-01-22T15:33:21.801Z,2.67
2023-01-22T15:37:25.109Z,2.59
2023-01-22T15:41:32.799Z,2.54
2023-01-22T15:45:35.416Z,2.64
2023-01-22T15:49:38.358Z,2.60
2023-01-22T15:53:41.065Z,2.80
2023-01-22T15:57:44.934Z,2.94
2023-01-22T16:01:47.814Z,2.97
2023-01-22T16:05:50.803Z,2.99
2023-01-22T16:09:53.333Z,2.97
2023-01-22T16:13:59.037Z,2.83
2023-01-22T16:18:01.926Z,2.74
2023-01-22T16:22:04.474Z,2.65
2023-01-22T16:26:09.347Z,2.53
2023-01-22T16:30:14.278Z,2.48
2023-01-22T16:34:19.612Z,2.60
2023-01-22T16:38:22.107Z,2.61
2023-01-22T16:42:24.754Z,2.47
2023-01-22T16:46:30.600Z,2.47
2023-01-22T16:50:33.212Z,2.50
2023-01-22T16:54:38.243Z,2.60
2023-01-22T16:58:41.114Z,2.62
2023-01-22T17:02:45.084Z,2.60
2023-01-22T17:06:49.717Z,2.44
2023-01-22T17:10:52.749Z,2.42
2023-01-22T17:14:55.243Z,2.15
2023-01-22T17:19:00.207Z,2.19
2023-01-22T17:23:02.742Z,2.12
2023-01-22T17:27:05.301Z,2.04
2023-01-22T17:31:09.350Z,1.99
2023-01-22T17:35:13.452Z,2.03
2023-01-22T17:39:17.815Z,2.07
2023-01-22T17:43:20.307Z,2.02
2023-01-22T17:47:22.836Z,2.10
2023-01-22T17:51:29.291Z,2.16
2023-01-22T17:55:31.928Z,2.16
2023-01-22T17:59:34.539Z,2.26
2023-01-22T18:03:37.855Z,2.13
2023-01-22T18:07:41.717Z,2.12
2023-01-22T18:11:44.319Z,2.17
2023-01-22T18:15:47.451Z,2.13
2023-01-22T18:19:50.117Z,2.06
2023-01-22T18:23:54.295Z,2.08
2023-01-22T18:27:56.815Z,2.10
2023-01-22T18:31:59.433Z,2.21
2023-01-22T18:36:02.046Z,2.29
2023-01-22T18:40:07.019Z,2.30
2023-01-22T18:44:10.964Z,2.34
2023-01-22T18:48:15.960Z,2.23
2023-01-22T18:52:18.431Z,2.27
2023-01-22T18:56:22.581Z,2.16
2023-01-22T19:00:25.306Z,2.11
2023-01-22T19:04:28.968Z,2.12
2023-01-22T19:08:31.638Z,2.10
2023-01-22T19:12:35.619Z,2.07
2023-01-22T19:16:38.768Z,2.11
2023-01-22T19:20:41.359Z,2.00
2023-01-22T19:24:43.887Z,1.94
2023-01-22T19:28:48.327Z,1.99
2023-01-22T19:32:54.424Z,2.04
2023-01-22T19:37:01.199Z,2.11
2023-01-22T19:41:04.333Z,2.06
2023-01-22T19:45:09.026Z,1.99
2023-01-22T19:49:13.605Z,1.99
2023-01-22T19:53:16.113Z,1.97
2023-01-22T19:57:18.610Z,1.96
2023-01-22T20:01:22.927Z,1.97
2023-01-22T20:05:25.537Z,1.88
2023-01-22T20:09:28.336Z,1.94
2023-01-22T20:13:31.475Z,1.91
2023-01-22T20:17:36.536Z,1.88
2023-01-22T20:21:39.077Z,1.92
2023-01-22T20:25:41.812Z,1.92
2023-01-22T20:29:44.333Z,1.98
2023-01-22T20:33:48.206Z,1.98
2023-01-22T20:37:50.764Z,1.95
2023-01-22T20:41:54.468Z,2.02
2023-01-22T20:46:02.328Z,1.92
2023-01-22T20:50:07.090Z,2.04
2023-01-22T20:54:10.624Z,1.96
2023-01-22T20:58:13.056Z,2.15
2023-01-22T21:02:15.655Z,2.04
2023-01-22T21:06:21.242Z,2.04
2023-01-22T21:10:23.807Z,2.08
2023-01-22T21:14:26.375Z,2.08
2023-01-22T21:18:28.886Z,2.18
2023-01-22T21:22:33.063Z,2.15
2023-01-22T21:26:35.848Z,2.03
2023-01-22T21:30:39.220Z,1.93
2023-01-22T21:34:42.351Z,1.96
2023-01-22T21:38:47.583Z,2.03
2023-01-22T21:43:07.998Z,1.99
2023-01-22T21:47:10.504Z,1.91
2023-01-22T21:51:13.017Z,1.84
2023-01-22T21:55:16.909Z,1.90
2023-01-22T21:59:20.044Z,1.92
